Time;durP1;ratioP1;P1;durP2;ratioP2;P2;SDS_P1;SDS_P2;PMS_P1;PMS_P2;Temp;Humidity;BMP_temperature;BMP_pressure;BME280_temperature;BME280_humidity;BME280_pressure;Samples;Min_cycle;Max_cycle;Signal;HPM_P1;HPM_P2
2021/08/22 00:01:50;;;;;;;;;;;;;;;22.70;70.44;101286.59;4966664;28;101896;-89
2021/08/22 00:04:18;;;;;;;;;;;;;;;22.70;70.57;101286.59;4947259;28;102037;-86
2021/08/22 00:06:44;;;;;;;;;;;;;;;22.69;70.53;101282.19;4942045;28;102172;-85
2021/08/22 00:09:11;;;;;;;;;;;;;;;22.70;70.14;101283.81;4937773;28;103832;-85
2021/08/22 00:11:57;;;;;;;;;;;;;;;22.70;70.34;101285.78;4930850;28;102116;-85
2021/08/22 00:14:23;;;;;;;;;;;;;;;22.71;70.71;101287.41;4944777;28;101962;-89
2021/08/22 00:16:49;;;;;;;;;;;;;;;22.69;70.29;101290.53;4946055;28;102306;-90
2021/08/22 00:19:15;;;;;;;;;;;;;;;22.69;70.54;101293.31;4943249;28;102726;-86
2021/08/22 00:21:43;;;;;;;;;;;;;;;22.69;70.43;101284.97;4943407;28;102062;-86
2021/08/22 00:24:10;;;;;;;;;;;;;;;22.69;70.45;101287.75;4958485;28;102512;-86
2021/08/22 00:26:36;;;;;;;;;;;;;;;22.69;70.63;101287.75;4946279;28;102052;-86
2021/08/22 00:29:02;;;;;;;;;;;;;;;22.68;70.64;101288.88;4938277;28;102729;-86
2021/08/22 00:31:29;;;;;;;;;;;;;;;22.69;70.57;101293.31;4939222;28;102306;-86
2021/08/22 00:33:55;;;;;;;;;;;;;;;22.69;70.67;101284.97;4941883;28;102228;-86
2021/08/22 00:36:21;;;;;;;;;;;;;;;22.68;70.48;101291.66;4941823;28;102131;-86
2021/08/22 00:38:50;;;;;;;;;;;;;;;22.69;70.36;101290.53;4942343;28;102852;-85
2021/08/22 00:41:17;;;;;;;;;;;;;;;22.69;70.65;101290.53;4940842;28;102095;-86
2021/08/22 00:43:44;;;;;;;;;;;;;;;22.68;70.63;101294.44;4959610;28;102168;-86
2021/08/22 00:46:10;;;;;;;;;;;;;;;22.68;70.55;101291.66;4946103;28;102789;-91
2021/08/22 00:48:38;;;;;;;;;;;;;;;22.68;70.30;101297.22;4946220;28;102037;-90
2021/08/22 00:51:05;;;;;;;;;;;;;;;22.68;70.71;101293.63;4944747;28;102141;-90
2021/08/22 00:53:31;;;;;;;;;;;;;;;22.68;70.52;101293.63;4940496;28;102204;-86
2021/08/22 00:56:03;;;;;;;;;;;;;;;22.68;70.58;101294.44;4942138;28;102252;-86
2021/08/22 00:58:30;;;;;;;;;;;;;;;22.68;70.45;101294.44;4940385;28;102729;-86
2021/08/22 01:00:59;;;;;;;;;;;;;;;22.67;70.61;101292.81;4942590;28;101925;-86
2021/08/22 01:03:32;;;;;;;;;;;;;;;22.68;70.69;101297.22;4941975;28;102073;-86
2021/08/22 01:06:03;;;;;;;;;;;;;;;22.67;70.71;101294.78;4948949;28;102056;-86
2021/08/22 01:08:31;;;;;;;;;;;;;;;22.68;70.56;101288.06;4957172;28;102689;-86
2021/08/22 01:11:02;;;;;;;;;;;;;;;22.67;70.53;101292.81;4964184;28;101940;-90
2021/08/22 01:13:32;;;;;;;;;;;;;;;22.67;70.60;101287.28;4943839;28;102139;-91
2021/08/22 01:15:58;;;;;;;;;;;;;;;22.67;70.73;101297.56;4943313;28;102033;-90
2021/08/22 01:18:26;;;;;;;;;;;;;;;22.67;70.46;101292.81;4941221;28;102506;-90
2021/08/22 01:21:01;;;;;;;;;;;;;;;22.68;70.60;101294.44;4943437;28;102120;-90
2021/08/22 01:23:28;;;;;;;;;;;;;;;22.67;70.73;101292.00;4933779;28;102736;-86
2021/08/22 01:25:56;;;;;;;;;;;;;;;22.67;70.61;101295.59;4934320;28;102142;-86
2021/08/22 01:28:24;;;;;;;;;;;;;;;22.67;70.67;101301.13;4940396;28;103352;-86
2021/08/22 01:30:53;;;;;;;;;;;;;;;22.68;70.59;101305.53;4931385;28;101977;-86
2021/08/22 01:33:21;;;;;;;;;;;;;;;22.68;70.88;101293.63;4957748;28;102057;-85
2021/08/22 01:35:47;;;;;;;;;;;;;;;22.67;70.88;101297.56;4945228;28;102156;-86
2021/08/22 01:38:14;;;;;;;;;;;;;;;22.67;70.51;101300.34;4941484;28;103706;-85
2021/08/22 01:40:41;;;;;;;;;;;;;;;22.66;70.71;101296.75;4942522;28;102093;-86
2021/08/22 01:43:09;;;;;;;;;;;;;;;22.67;70.80;101298.38;4936954;28;102345;-86
2021/08/22 01:45:36;;;;;;;;;;;;;;;22.68;70.66;101302.75;4943396;28;102166;-90
2021/08/22 01:48:03;;;;;;;;;;;;;;;22.67;70.53;101292.81;4940849;28;102743;-90
2021/08/22 01:50:32;;;;;;;;;;;;;;;22.68;70.63;101299.16;4957775;28;102073;-90
2021/08/22 01:53:00;;;;;;;;;;;;;;;22.66;70.59;101285.66;4943864;28;102337;-90
2021/08/22 01:55:27;;;;;;;;;;;;;;;22.67;70.58;101292.81;4943329;28;102056;-90
2021/08/22 01:57:53;;;;;;;;;;;;;;;22.67;70.76;101298.38;4942079;28;102824;-90
2021/08/22 02:00:19;;;;;;;;;;;;;;;22.66;70.55;101293.97;4943862;28;102057;-90
2021/08/22 02:02:49;;;;;;;;;;;;;;;22.66;70.55;101293.97;4947908;28;102058;-90
2021/08/22 02:05:16;;;;;;;;;;;;;;;22.65;70.80;101295.13;4950612;28;102171;-90
2021/08/22 02:07:44;;;;;;;;;;;;;;;22.66;70.55;101290.41;4942489;28;102674;-90
2021/08/22 02:10:14;;;;;;;;;;;;;;;22.65;70.60;101286.81;4942402;28;102056;-90
2021/08/22 02:12:40;;;;;;;;;;;;;;;22.66;70.87;101296.75;4937609;28;101939;-90
2021/08/22 02:15:10;;;;;;;;;;;;;;;22.64;70.74;101290.72;4946521;28;102552;-85
2021/08/22 02:17:48;;;;;;;;;;;;;;;22.65;70.73;101300.69;4942352;28;102768;-91
2021/08/22 02:20:15;;;;;;;;;;;;;;;22.66;70.88;101293.97;4940269;28;101907;-91
2021/08/22 02:22:42;;;;;;;;;;;;;;;22.64;70.54;101296.25;4941381;28;102158;-90
2021/08/22 02:25:10;;;;;;;;;;;;;;;22.66;70.61;101296.75;4942335;28;102341;-90
2021/08/22 02:27:37;;;;;;;;;;;;;;;22.65;70.56;101306.22;4935917;28;102821;-90
2021/08/22 02:30:04;;;;;;;;;;;;;;;22.66;70.92;101296.75;4941836;28;102129;-90
2021/08/22 02:32:31;;;;;;;;;;;;;;;22.64;70.74;101299.03;4952164;28;102094;-90
2021/08/22 02:34:57;;;;;;;;;;;;;;;22.65;70.62;101305.44;4941616;28;102133;-90
2021/08/22 02:37:23;;;;;;;;;;;;;;;22.65;70.59;101305.44;4942514;28;102784;-90
2021/08/22 02:39:49;;;;;;;;;;;;;;;22.65;70.73;101300.69;4942036;28;102123;-90
2021/08/22 02:42:17;;;;;;;;;;;;;;;22.65;70.55;101305.44;4943317;28;102118;-91
2021/08/22 02:44:45;;;;;;;;;;;;;;;22.64;70.53;101310.13;4942174;28;102307;-91
2021/08/22 02:47:11;;;;;;;;;;;;;;;22.64;70.88;101296.25;4937900;28;102744;-90
2021/08/22 02:49:37;;;;;;;;;;;;;;;22.64;70.87;101303.78;4944163;28;102135;-90
2021/08/22 02:52:04;;;;;;;;;;;;;;;22.64;70.54;101298.22;4942923;28;102118;-91
2021/08/22 02:54:30;;;;;;;;;;;;;;;22.63;70.80;101297.41;4941450;28;102179;-91
2021/08/22 02:56:56;;;;;;;;;;;;;;;22.63;70.91;101297.41;4961727;28;102673;-90
2021/08/22 02:59:24;;;;;;;;;;;;;;;22.64;71.10;101304.59;4935645;28;102161;-86
2021/08/22 03:01:50;;;;;;;;;;;;;;;22.63;70.63;101300.19;4945808;28;102020;-90
2021/08/22 03:04:16;;;;;;;;;;;;;;;22.64;70.92;101304.59;4932255;28;102036;-90
2021/08/22 03:06:44;;;;;;;;;;;;;;;22.63;70.95;101308.53;4942664;28;102728;-91
2021/08/22 03:09:11;;;;;;;;;;;;;;;22.64;70.75;101303.78;4940897;28;102080;-91
2021/08/22 03:11:44;;;;;;;;;;;;;;;22.63;70.81;101304.94;4942231;28;102131;-90
2021/08/22 03:14:11;;;;;;;;;;;;;;;22.64;70.76;101309.31;4941620;28;102124;-90
2021/08/22 03:16:40;;;;;;;;;;;;;;;22.64;70.63;101309.31;4941041;28;102445;-86
2021/08/22 03:19:07;;;;;;;;;;;;;;;22.64;70.74;101309.31;4941373;28;101985;-86
2021/08/22 03:21:33;;;;;;;;;;;;;;;22.62;71.15;101309.69;4941381;28;102038;-86
2021/08/22 03:24:00;;;;;;;;;;;;;;;22.63;70.73;101302.16;4956718;28;102217;-86
2021/08/22 03:26:26;;;;;;;;;;;;;;;22.63;70.74;101316.03;4940351;28;103803;-85
2021/08/22 03:28:52;;;;;;;;;;;;;;;22.63;70.82;101319.63;4940893;28;102025;-85
2021/08/22 03:31:19;;;;;;;;;;;;;;;22.63;70.96;101318.81;4937423;28;102096;-86
2021/08/22 03:33:46;;;;;;;;;;;;;;;22.62;70.69;101312.44;4941590;28;102039;-85
2021/08/22 03:36:13;;;;;;;;;;;;;;;22.63;70.93;101319.63;4937463;28;104008;-86
2021/08/22 03:38:40;;;;;;;;;;;;;;;22.62;70.89;101318.00;4934492;28;102119;-85
2021/08/22 03:41:06;;;;;;;;;;;;;;;22.63;70.85;101321.59;4941909;28;102143;-86
2021/08/22 03:43:33;;;;;;;;;;;;;;;22.62;71.09;101323.56;4935571;28;102231;-85
2021/08/22 03:45:59;;;;;;;;;;;;;;;22.62;70.79;101323.56;4941937;28;102717;-85
2021/08/22 03:48:25;;;;;;;;;;;;;;;22.63;70.75;101318.81;4941524;28;102523;-85
2021/08/22 03:50:56;;;;;;;;;;;;;;;22.62;70.92;101323.56;4941531;28;102072;-86
2021/08/22 03:53:22;;;;;;;;;;;;;;;22.62;70.75;101318.00;4941967;28;102174;-90
2021/08/22 03:55:49;;;;;;;;;;;;;;;22.62;70.78;101318.00;4945131;28;102451;-86
2021/08/22 03:58:15;;;;;;;;;;;;;;;22.63;70.97;101324.34;4943231;28;101828;-90
2021/08/22 04:00:42;;;;;;;;;;;;;;;22.62;70.76;101329.09;4943109;28;101783;-90
2021/08/22 04:03:08;;;;;;;;;;;;;;;22.63;70.96;101324.34;4944327;28;102105;-90
2021/08/22 04:05:35;;;;;;;;;;;;;;;22.63;71.12;101335.47;4942987;28;102735;-90
2021/08/22 04:08:03;;;;;;;;;;;;;;;22.62;70.95;101329.09;4942978;28;101968;-90
2021/08/22 04:10:30;;;;;;;;;;;;;;;22.63;70.85;101329.91;4923693;28;101941;-90
2021/08/22 04:12:56;;;;;;;;;;;;;;;22.63;70.97;101333.50;4922044;28;101767;-90
2021/08/22 04:15:26;;;;;;;;;;;;;;;22.63;70.91;101347.34;4923542;28;102653;-90
2021/08/22 04:17:52;;;;;;;;;;;;;;;22.62;70.93;101337.41;4958372;28;102075;-90
2021/08/22 04:20:19;;;;;;;;;;;;;;;22.63;70.83;101341.81;4946062;28;102024;-90
2021/08/22 04:22:45;;;;;;;;;;;;;;;22.63;70.86;101339.03;4943493;28;102077;-89
2021/08/22 04:25:13;;;;;;;;;;;;;;;22.63;70.86;101338.22;4942845;28;102686;-90
2021/08/22 04:27:40;;;;;;;;;;;;;;;22.63;71.05;101341.81;4940682;28;102173;-86
2021/08/22 04:30:07;;;;;;;;;;;;;;;22.63;71.12;101341.00;4941320;28;102141;-86
2021/08/22 04:32:33;;;;;;;;;;;;;;;22.64;70.91;101348.97;4944383;28;102191;-86
2021/08/22 04:34:59;;;;;;;;;;;;;;;22.62;71.15;101334.66;4946847;28;102762;-86
2021/08/22 04:37:25;;;;;;;;;;;;;;;22.63;70.91;101341.00;4944749;28;102164;-86
2021/08/22 04:39:52;;;;;;;;;;;;;;;22.63;70.88;101346.56;4946651;28;102064;-86
2021/08/22 04:42:20;;;;;;;;;;;;;;;22.63;71.03;101347.34;4943193;28;102131;-86
2021/08/22 04:44:46;;;;;;;;;;;;;;;22.63;70.86;101352.91;4935964;28;102773;-86
2021/08/22 04:47:13;;;;;;;;;;;;;;;22.62;71.05;101351.28;4942249;28;102091;-87
2021/08/22 04:49:39;;;;;;;;;;;;;;;22.62;71.17;101340.19;4943363;28;102131;-90
2021/08/22 04:52:06;;;;;;;;;;;;;;;22.62;71.22;101345.75;4946473;28;102146;-91
2021/08/22 04:54:32;;;;;;;;;;;;;;;22.62;71.14;101345.75;4945134;28;102811;-91
2021/08/22 04:56:59;;;;;;;;;;;;;;;22.64;71.17;101350.94;4946200;28;102025;-91
2021/08/22 04:59:26;;;;;;;;;;;;;;;22.63;71.03;101341.81;4943136;28;102002;-91
2021/08/22 05:01:53;;;;;;;;;;;;;;;22.63;71.16;101352.91;4945691;28;102056;-91
2021/08/22 05:04:19;;;;;;;;;;;;;;;22.63;71.23;101350.13;4933727;28;102787;-91
2021/08/22 05:06:47;;;;;;;;;;;;;;;22.63;71.03;101347.34;4932908;28;102226;-91
2021/08/22 05:09:13;;;;;;;;;;;;;;;22.63;71.20;101341.81;4944377;28;102129;-90
2021/08/22 05:11:59;;;;;;;;;;;;;;;22.63;71.08;101352.91;4943673;28;102039;-92
2021/08/22 05:14:26;;;;;;;;;;;;;;;22.64;71.03;101353.72;4942801;28;102786;-91
2021/08/22 05:16:53;;;;;;;;;;;;;;;22.63;71.16;101355.69;4943322;28;101985;-91
2021/08/22 05:19:19;;;;;;;;;;;;;;;22.64;71.24;101360.06;4943260;28;101984;-86
2021/08/22 05:21:46;;;;;;;;;;;;;;;22.64;71.10;101353.72;4942743;28;102286;-86
2021/08/22 05:24:12;;;;;;;;;;;;;;;22.65;71.42;101358.94;4937228;28;102682;-86
2021/08/22 05:26:38;;;;;;;;;;;;;;;22.64;71.43;101362.84;4942350;28;102204;-86
2021/08/22 05:29:04;;;;;;;;;;;;;;;22.64;71.08;101360.06;4948957;28;102172;-86
2021/08/22 05:31:32;;;;;;;;;;;;;;;22.65;71.41;101366.47;4959995;28;102364;-86
2021/08/22 05:33:59;;;;;;;;;;;;;;;22.65;71.27;101367.28;4944093;28;102813;-86
2021/08/22 05:36:25;;;;;;;;;;;;;;;22.67;71.19;101366.91;4944557;28;102033;-85
2021/08/22 05:38:53;;;;;;;;;;;;;;;22.66;71.03;101368.88;4937167;28;101957;-91
2021/08/22 05:41:19;;;;;;;;;;;;;;;22.66;71.31;101357.78;4945365;28;102194;-86
2021/08/22 05:43:48;;;;;;;;;;;;;;;22.67;71.17;101364.94;4944227;28;102745;-90
2021/08/22 05:46:15;;;;;;;;;;;;;;;22.67;71.05;101364.94;4944507;28;101814;-88
2021/08/22 05:48:42;;;;;;;;;;;;;;;22.67;71.00;101356.63;4942671;28;101741;-89
2021/08/22 05:51:13;;;;;;;;;;;;;;;22.68;71.07;101357.44;4944790;28;102108;-89
2021/08/22 05:53:41;;;;;;;;;;;;;;;22.67;71.20;101359.41;4970350;28;102797;-89
2021/08/22 05:56:08;;;;;;;;;;;;;;;22.68;71.17;101360.22;4956633;28;102113;-91
2021/08/22 05:58:36;;;;;;;;;;;;;;;22.68;71.13;101355.47;4944784;28;101846;-90
2021/08/22 06:01:02;;;;;;;;;;;;;;;22.69;71.34;101362.66;4948578;28;102064;-90
2021/08/22 06:03:28;;;;;;;;;;;;;;;22.71;71.29;101365.09;4941920;28;102670;-88
2021/08/22 06:05:56;;;;;;;;;;;;;;;22.70;71.34;101355.97;4943307;28;102132;-88
2021/08/22 06:08:22;;;;;;;;;;;;;;;22.70;70.95;101358.72;4942571;28;102174;-87
2021/08/22 06:10:48;;;;;;;;;;;;;;;22.73;71.07;101362.81;4941914;28;102421;-87
2021/08/22 06:13:15;;;;;;;;;;;;;;;22.71;70.87;101354.78;4943998;28;103594;-87
2021/08/22 06:15:44;;;;;;;;;;;;;;;22.73;70.91;101363.59;4957138;28;102159;-87
2021/08/22 06:18:10;;;;;;;;;;;;;;;22.74;71.10;101359.66;4958379;28;102322;-87
2021/08/22 06:20:37;;;;;;;;;;;;;;;22.74;70.88;101359.66;4943654;28;102879;-87
2021/08/22 06:23:05;;;;;;;;;;;;;;;22.75;71.09;101360.47;4941202;28;102667;-88
2021/08/22 06:25:31;;;;;;;;;;;;;;;22.76;71.09;101356.56;4941480;28;102413;-87
2021/08/22 06:27:57;;;;;;;;;;;;;;;22.75;71.14;101358.50;4940807;28;102143;-87
2021/08/22 06:30:23;;;;;;;;;;;;;;;22.77;70.98;101360.97;4940067;28;102147;-87
2021/08/22 06:32:50;;;;;;;;;;;;;;;22.77;71.05;101359.00;4943064;28;102828;-88
2021/08/22 06:35:16;;;;;;;;;;;;;;;22.79;70.84;101361.41;4942395;28;102163;-87
2021/08/22 06:37:42;;;;;;;;;;;;;;;22.79;70.82;101356.72;4929048;28;102159;-90
2021/08/22 06:40:11;;;;;;;;;;;;;;;22.79;70.81;101367.81;4943068;28;102180;-92
2021/08/22 06:42:38;;;;;;;;;;;;;;;22.81;70.75;101369.44;4944130;28;102359;-92
2021/08/22 06:45:05;;;;;;;;;;;;;;;22.81;70.93;101363.88;4942684;28;102064;-90
2021/08/22 06:47:31;;;;;;;;;;;;;;;22.82;70.90;101368.28;4942509;28;102051;-91
2021/08/22 06:50:00;;;;;;;;;;;;;;;22.83;70.82;101372.66;4942367;28;102117;-91
2021/08/22 06:52:26;;;;;;;;;;;;;;;22.83;70.85;101379.06;4942316;28;102690;-92
2021/08/22 06:54:53;;;;;;;;;;;;;;;22.85;70.90;101381.47;4943906;28;102227;-88
2021/08/22 06:57:20;;;;;;;;;;;;;;;22.85;70.91;101378.69;4940555;28;102275;-88
2021/08/22 06:59:47;;;;;;;;;;;;;;;22.85;70.88;101381.47;4957388;28;102194;-88
2021/08/22 07:02:13;;;;;;;;;;;;;;;22.86;71.03;101381.13;4942260;28;102386;-88
2021/08/22 07:04:39;;;;;;;;;;;;;;;22.86;70.91;101388.63;4941992;28;101985;-88
2021/08/22 07:07:05;;;;;;;;;;;;;;;22.86;70.84;101385.88;4938532;28;102158;-88
2021/08/22 07:09:33;;;;;;;;;;;;;;;22.88;70.57;101380.81;4940144;28;102164;-88
2021/08/22 07:12:00;;;;;;;;;;;;;;;22.88;70.53;101386.34;4935983;28;102760;-88
2021/08/22 07:14:29;;;;;;;;;;;;;;;22.88;70.67;101381.59;4941376;28;102104;-88
2021/08/22 07:16:55;;;;;;;;;;;;;;;22.89;70.83;101388.78;4941739;28;102221;-88
2021/08/22 07:19:21;;;;;;;;;;;;;;;22.89;70.77;101386.00;4941705;28;102126;-87
2021/08/22 07:21:48;;;;;;;;;;;;;;;22.92;70.65;101392.88;4928022;28;102755;-87
2021/08/22 07:24:14;;;;;;;;;;;;;;;22.92;70.93;101387.31;4934034;28;102092;-88
2021/08/22 07:26:40;;;;;;;;;;;;;;;22.93;70.87;101394.50;4940247;28;102036;-88
2021/08/22 07:29:06;;;;;;;;;;;;;;;22.94;70.91;101396.94;4941349;28;102129;-87
2021/08/22 07:31:34;;;;;;;;;;;;;;;22.93;70.72;101394.50;4940972;28;102386;-92
2021/08/22 07:34:00;;;;;;;;;;;;;;;22.95;70.54;101400.53;4942697;28;101978;-92
2021/08/22 07:36:26;;;;;;;;;;;;;;;22.96;70.57;101402.16;4944982;28;102152;-92
2021/08/22 07:38:52;;;;;;;;;;;;;;;22.97;70.79;101401.81;4941582;28;102036;-91
2021/08/22 07:41:19;;;;;;;;;;;;;;;22.97;70.75;101400.97;4932320;28;102692;-91
2021/08/22 07:43:45;;;;;;;;;;;;;;;22.98;70.79;101402.63;4943019;28;102195;-93
2021/08/22 07:46:13;;;;;;;;;;;;;;;22.99;70.56;101407.03;4947435;28;102192;-91
2021/08/22 07:48:42;;;;;;;;;;;;;;;22.99;70.74;101404.25;4951409;28;102119;-92
2021/08/22 07:51:08;;;;;;;;;;;;;;;23.00;70.67;101400.31;4940090;28;102740;-91
2021/08/22 07:53:36;;;;;;;;;;;;;;;23.01;70.47;101407.50;4944276;28;102164;-91
2021/08/22 07:56:02;;;;;;;;;;;;;;;23.00;70.74;101390.00;4942856;28;101879;-90
2021/08/22 07:58:28;;;;;;;;;;;;;;;23.02;70.80;101403.56;4942917;28;102257;-92
2021/08/22 08:00:55;;;;;;;;;;;;;;;23.02;70.89;101398.84;4940668;28;102674;-91
2021/08/22 08:03:22;;;;;;;;;;;;;;;23.03;70.66;101405.19;4943396;28;101983;-90
2021/08/22 08:05:49;;;;;;;;;;;;;;;23.03;70.59;101396.88;4942227;28;102048;-92
2021/08/22 08:08:16;;;;;;;;;;;;;;;23.04;70.63;101401.25;4944348;28;102352;-92
2021/08/22 08:10:42;;;;;;;;;;;;;;;23.05;70.52;101397.34;4944863;28;102257;-92
2021/08/22 08:13:08;;;;;;;;;;;;;;;23.05;70.57;101391.78;4947814;28;101942;-92
2021/08/22 08:15:35;;;;;;;;;;;;;;;23.06;70.57;101393.41;4945798;28;102051;-90
2021/08/22 08:18:01;;;;;;;;;;;;;;;23.07;70.63;101392.25;4946502;28;101855;-92
2021/08/22 08:20:27;;;;;;;;;;;;;;;23.07;70.62;101392.25;4956160;28;102719;-92
2021/08/22 08:22:55;;;;;;;;;;;;;;;23.06;70.72;101387.84;4953466;28;102295;-92
2021/08/22 08:25:21;;;;;;;;;;;;;;;23.07;70.54;101385.88;4936835;28;102030;-91
2021/08/22 08:27:48;;;;;;;;;;;;;;;23.08;70.50;101391.13;4948533;28;102098;-91
2021/08/22 08:30:14;;;;;;;;;;;;;;;23.08;70.61;101388.34;4947103;28;101987;-92
2021/08/22 08:32:41;;;;;;;;;;;;;;;23.09;70.37;101398.28;4948541;28;101835;-92
2021/08/22 08:35:10;;;;;;;;;;;;;;;23.08;70.59;101391.13;4945411;28;101875;-92
2021/08/22 08:37:37;;;;;;;;;;;;;;;23.09;70.43;101392.72;4947530;28;102285;-91
2021/08/22 08:40:05;;;;;;;;;;;;;;;23.10;70.55;101388.00;4947030;28;102674;-92
2021/08/22 08:42:32;;;;;;;;;;;;;;;23.11;70.57;101392.38;4947726;28;102303;-92
2021/08/22 08:44:58;;;;;;;;;;;;;;;23.10;70.35;101386.03;4946596;28;102094;-92
2021/08/22 08:47:25;;;;;;;;;;;;;;;23.11;70.35;101395.97;4949037;28;102120;-92
2021/08/22 08:49:53;;;;;;;;;;;;;;;23.12;70.49;101394.03;4944923;28;102714;-92
2021/08/22 08:52:22;;;;;;;;;;;;;;;23.11;70.25;101393.19;4960877;28;102191;-92
2021/08/22 08:54:48;;;;;;;;;;;;;;;23.12;70.43;101396.81;4945476;28;102096;-91
2021/08/22 08:57:16;;;;;;;;;;;;;;;23.12;70.49;101392.06;4946776;28;102106;-91
2021/08/22 08:59:42;;;;;;;;;;;;;;;23.12;70.48;101392.06;4947209;28;102723;-91
2021/08/22 09:02:09;;;;;;;;;;;;;;;23.13;70.27;101390.09;4941768;28;102066;-91
2021/08/22 09:04:36;;;;;;;;;;;;;;;23.13;70.45;101387.31;4944230;28;101762;-91
2021/08/22 09:07:33;;;;;;;;;;;;;;;23.14;70.21;101392.50;4946723;28;102182;-92
2021/08/22 09:10:17;;;;;;;;;;;;;;;23.12;70.08;101386.50;4946884;28;102747;-91
2021/08/22 09:13:16;;;;;;;;;;;;;;;23.13;70.36;101393.69;4946489;28;102079;-92
2021/08/22 09:16:07;;;;;;;;;;;;;;;23.13;70.48;101388.13;4950608;28;102108;-91
2021/08/22 09:18:56;;;;;;;;;;;;;;;23.13;70.14;101393.69;4944270;28;101914;-91
2021/08/22 09:21:41;;;;;;;;;;;;;;;23.14;70.15;101395.28;4940149;28;102738;-91
2021/08/22 09:24:25;;;;;;;;;;;;;;;23.14;70.09;101394.47;4933977;28;102138;-91
2021/08/22 09:27:22;;;;;;;;;;;;;;;23.13;70.56;101390.91;4959478;28;102084;-93
2021/08/22 09:30:12;;;;;;;;;;;;;;;23.14;70.36;101384.19;4944236;28;102160;-92
2021/08/22 09:33:11;;;;;;;;;;;;;;;23.14;70.15;101394.47;4942563;28;102841;-92
2021/08/22 09:35:52;;;;;;;;;;;;;;;23.14;70.17;101392.50;4887141;28;102055;-92
2021/08/22 09:38:39;;;;;;;;;;;;;;;23.15;70.16;101390.53;4903377;28;101998;-92
2021/08/22 09:41:38;;;;;;;;;;;;;;;23.14;70.44;101384.19;4928712;28;102175;-91
2021/08/22 09:44:24;;;;;;;;;;;;;;;23.14;70.17;101388.94;4933443;28;102739;-92
2021/08/22 09:47:21;;;;;;;;;;;;;;;23.14;70.26;101383.38;4921974;28;102167;-92
2021/08/22 09:50:08;;;;;;;;;;;;;;;23.13;70.10;101377.00;4956633;28;102080;-91
2021/08/22 09:52:58;;;;;;;;;;;;;;;23.13;70.17;101376.22;4944437;28;102198;-91
2021/08/22 09:55:47;;;;;;;;;;;;;;;23.13;70.03;101376.22;4887213;28;102769;-92
2021/08/22 09:58:34;;;;;;;;;;;;;;;23.15;69.93;101382.22;4943810;28;102137;-92
2021/08/22 10:01:18;;;;;;;;;;;;;;;23.13;70.03;101382.56;4944765;28;101972;-91
2021/08/22 10:04:06;;;;;;;;;;;;;;;23.13;69.83;101379.78;4944855;28;102142;-90
2021/08/22 10:06:59;;;;;;;;;;;;;;;23.14;69.89;101380.59;4940430;28;103137;-91
2021/08/22 10:09:25;;;;;;;;;;;;;;;23.13;70.03;101382.56;4942849;28;102070;-92
2021/08/22 10:11:55;;;;;;;;;;;;;;;23.12;70.02;101375.41;4944382;28;102085;-90
2021/08/22 10:14:21;;;;;;;;;;;;;;;23.12;69.89;101380.97;4946519;28;102055;-92
2021/08/22 10:16:48;;;;;;;;;;;;;;;23.13;69.92;101384.53;4943398;28;102723;-92
2021/08/22 10:19:14;;;;;;;;;;;;;;;23.12;69.95;101375.41;4944505;28;101974;-92
2021/08/22 10:21:41;;;;;;;;;;;;;;;23.12;70.07;101372.63;4948371;28;102072;-91
2021/08/22 10:24:11;;;;;;;;;;;;;;;23.11;69.86;101368.19;4949574;28;102197;-92
2021/08/22 10:26:58;;;;;;;;;;;;;;;23.12;70.04;101374.59;4954901;28;102786;-92
2021/08/22 10:29:24;;;;;;;;;;;;;;;23.12;69.98;101369.84;4943804;28;102134;-92
2021/08/22 10:32:09;;;;;;;;;;;;;;;23.12;69.96;101374.59;4944859;28;102039;-92
2021/08/22 10:34:36;;;;;;;;;;;;;;;23.11;69.96;101379.31;4945074;28;102131;-91
2021/08/22 10:37:18;;;;;;;;;;;;;;;23.11;69.81;101378.50;4942631;28;102709;-90
2021/08/22 10:39:44;;;;;;;;;;;;;;;23.11;69.86;101373.75;4942569;28;102423;-92
2021/08/22 10:42:18;;;;;;;;;;;;;;;23.11;69.88;101373.75;4946333;28;102205;-91
2021/08/22 10:44:45;;;;;;;;;;;;;;;23.11;69.75;101373.75;4942572;28;102170;-92
2021/08/22 10:47:12;;;;;;;;;;;;;;;23.10;69.77;101372.16;4957223;28;102718;-90
2021/08/22 10:49:57;;;;;;;;;;;;;;;23.10;69.75;101380.47;4945899;28;102139;-92
2021/08/22 10:52:24;;;;;;;;;;;;;;;23.11;69.71;101372.94;4943478;28;102058;-92
2021/08/22 10:55:09;;;;;;;;;;;;;;;23.09;70.10;101370.53;4944726;28;102053;-91
2021/08/22 10:57:52;;;;;;;;;;;;;;;23.09;69.85;101367.75;4941980;28;102874;-92
2021/08/22 11:00:20;;;;;;;;;;;;;;;23.09;69.83;101370.53;4942444;28;102086;-92
2021/08/22 11:02:46;;;;;;;;;;;;;;;23.08;70.09;101374.47;4945059;28;101855;-92
2021/08/22 11:05:13;;;;;;;;;;;;;;;23.08;69.87;101374.47;4946280;28;102190;-91
2021/08/22 11:07:39;;;;;;;;;;;;;;;23.09;69.90;101364.16;4945017;28;102708;-91
2021/08/22 11:10:10;;;;;;;;;;;;;;;23.09;70.04;101362.19;4937598;28;102004;-90
2021/08/22 11:12:38;;;;;;;;;;;;;;;23.08;69.85;101363.34;4932652;28;102067;-92
2021/08/22 11:15:08;;;;;;;;;;;;;;;23.07;70.00;101361.72;4935643;28;102051;-88
2021/08/22 11:17:34;;;;;;;;;;;;;;;23.07;69.75;101358.94;4950330;28;102743;-92
2021/08/22 11:20:11;;;;;;;;;;;;;;;23.08;70.02;101362.53;4943551;28;101951;-88
2021/08/22 11:22:37;;;;;;;;;;;;;;;23.06;69.96;101354.53;4945571;28;102025;-91
2021/08/22 11:25:05;;;;;;;;;;;;;;;23.07;70.08;101352.56;4958685;28;102118;-92
2021/08/22 11:27:31;;;;;;;;;;;;;;;23.06;70.07;101353.75;4943408;28;102817;-90
2021/08/22 11:29:58;;;;;;;;;;;;;;;23.06;69.97;101354.53;4941781;28;102033;-91
2021/08/22 11:32:27;;;;;;;;;;;;;;;23.05;69.81;101352.94;4942145;28;102096;-91
2021/08/22 11:34:53;;;;;;;;;;;;;;;23.06;69.91;101350.97;4942073;28;102082;-92
2021/08/22 11:37:22;;;;;;;;;;;;;;;23.05;69.93;101344.59;4941374;28;103178;-91
2021/08/22 11:39:49;;;;;;;;;;;;;;;23.05;69.89;101341.81;4943051;28;102002;-91
2021/08/22 11:42:19;;;;;;;;;;;;;;;23.04;69.87;101345.72;4942824;28;102035;-92
2021/08/22 11:44:45;;;;;;;;;;;;;;;23.04;70.13;101337.41;4945923;28;102160;-91
2021/08/22 11:47:12;;;;;;;;;;;;;;;23.03;70.17;101344.94;4945193;28;102752;-92
2021/08/22 11:49:40;;;;;;;;;;;;;;;23.03;70.00;101344.13;4945923;28;102201;-91
2021/08/22 11:52:06;;;;;;;;;;;;;;;23.04;70.10;101340.19;4961145;28;102006;-90
2021/08/22 11:54:34;;;;;;;;;;;;;;;23.03;69.73;101341.34;4963116;28;102287;-91
2021/08/22 11:57:15;;;;;;;;;;;;;;;23.03;70.10;101333.00;4946391;28;102689;-91
2021/08/22 11:59:42;;;;;;;;;;;;;;;23.03;70.01;101327.47;4946102;28;101904;-91
2021/08/22 12:02:12;;;;;;;;;;;;;;;23.02;70.01;101328.63;4942905;28;102074;-87
2021/08/22 12:04:41;;;;;;;;;;;;;;;23.01;70.03;101327.81;4940767;28;102130;-86
2021/08/22 12:07:07;;;;;;;;;;;;;;;23.02;70.06;101334.19;4945364;28;102745;-91
2021/08/22 12:09:34;;;;;;;;;;;;;;;23.01;70.04;101330.59;4961911;28;102086;-92
2021/08/22 12:12:00;;;;;;;;;;;;;;;23.01;70.21;101321.47;4947182;28;101929;-92
2021/08/22 12:14:31;;;;;;;;;;;;;;;23.01;70.04;101329.78;4947209;28;102167;-92
2021/08/22 12:16:58;;;;;;;;;;;;;;;23.00;69.75;101328.13;4962046;28;102766;-92
2021/08/22 12:19:26;;;;;;;;;;;;;;;23.01;69.82;101324.22;4949125;28;102132;-90
2021/08/22 12:21:54;;;;;;;;;;;;;;;23.01;69.96;101325.03;4946394;28;101984;-90
2021/08/22 12:24:21;;;;;;;;;;;;;;;23.00;69.95;101317.84;4947013;28;102110;-91
2021/08/22 12:26:48;;;;;;;;;;;;;;;23.01;69.90;101327.00;4946642;28;102691;-91
2021/08/22 12:29:16;;;;;;;;;;;;;;;22.99;70.07;101316.22;4945677;28;102219;-92
2021/08/22 12:31:43;;;;;;;;;;;;;;;23.00;70.36;101322.59;4945367;28;102141;-91
2021/08/22 12:34:10;;;;;;;;;;;;;;;22.99;70.20;101316.22;4960302;28;102106;-88
2021/08/22 12:36:37;;;;;;;;;;;;;;;22.99;70.09;101326.53;4941474;28;102851;-88
2021/08/22 12:39:05;;;;;;;;;;;;;;;22.99;70.09;101320.97;4944196;28;102276;-88